sensor_id;sensor_type;location;lat;lon;timestamp;P1;durP1;ratioP1;P2;durP2;ratioP2
67665;SDS011;54448;51.472;-2.574;2023-10-19T00:01:54;4.88;;;0.80;;
67665;SDS011;54448;51.472;-2.574;2023-10-19T00:04:24;5.13;;;1.00;;
67665;SDS011;54448;51.472;-2.574;2023-10-19T00:06:50;4.25;;;0.80;;
67665;SDS011;54448;51.472;-2.574;2023-10-19T00:09:15;8.88;;;1.00;;
67665;SDS011;54448;51.472;-2.574;2023-10-19T00:11:41;9.27;;;1.45;;
67665;SDS011;54448;51.472;-2.574;2023-10-19T00:14:07;8.95;;;1.65;;
67665;SDS011;54448;51.472;-2.574;2023-10-19T00:16:53;6.03;;;1.25;;
67665;SDS011;54448;51.472;-2.574;2023-10-19T00:19:21;16.33;;;1.38;;
67665;SDS011;54448;51.472;-2.574;2023-10-19T00:21:47;21.13;;;1.30;;
67665;SDS011;54448;51.472;-2.574;2023-10-19T00:24:17;6.65;;;1.02;;
67665;SDS011;54448;51.472;-2.574;2023-10-19T00:26:44;7.88;;;1.00;;
67665;SDS011;54448;51.472;-2.574;2023-10-19T00:29:10;11.80;;;1.15;;
67665;SDS011;54448;51.472;-2.574;2023-10-19T00:31:54;9.45;;;1.15;;
67665;SDS011;54448;51.472;-2.574;2023-10-19T00:34:21;7.05;;;1.50;;
67665;SDS011;54448;51.472;-2.574;2023-10-19T00:36:47;13.73;;;1.30;;
67665;SDS011;54448;51.472;-2.574;2023-10-19T00:39:13;11.13;;;1.13;;
67665;SDS011;54448;51.472;-2.574;2023-10-19T00:41:46;13.68;;;1.65;;
67665;SDS011;54448;51.472;-2.574;2023-10-19T00:44:13;12.05;;;1.23;;
67665;SDS011;54448;51.472;-2.574;2023-10-19T00:46:42;4.90;;;2.00;;
67665;SDS011;54448;51.472;-2.574;2023-10-19T00:49:08;16.23;;;1.25;;
67665;SDS011;54448;51.472;-2.574;2023-10-19T00:54:23;2.78;;;0.80;;
67665;SDS011;54448;51.472;-2.574;2023-10-19T00:57:06;8.82;;;1.10;;
67665;SDS011;54448;51.472;-2.574;2023-10-19T00:59:38;10.68;;;1.02;;
67665;SDS011;54448;51.472;-2.574;2023-10-19T01:02:12;9.73;;;1.33;;
67665;SDS011;54448;51.472;-2.574;2023-10-19T01:04:54;7.30;;;1.13;;
67665;SDS011;54448;51.472;-2.574;2023-10-19T01:07:30;4.18;;;1.00;;
67665;SDS011;54448;51.472;-2.574;2023-10-19T01:10:02;6.55;;;1.05;;
67665;SDS011;54448;51.472;-2.574;2023-10-19T01:12:33;6.25;;;1.00;;
67665;SDS011;54448;51.472;-2.574;2023-10-19T01:15:05;6.00;;;1.10;;
67665;SDS011;54448;51.472;-2.574;2023-10-19T01:17:47;9.07;;;1.30;;
67665;SDS011;54448;51.472;-2.574;2023-10-19T01:20:17;4.63;;;1.08;;
67665;SDS011;54448;51.472;-2.574;2023-10-19T01:22:57;8.73;;;1.10;;
67665;SDS011;54448;51.472;-2.574;2023-10-19T01:25:41;7.82;;;1.10;;
67665;SDS011;54448;51.472;-2.574;2023-10-19T01:28:15;6.57;;;1.05;;
67665;SDS011;54448;51.472;-2.574;2023-10-19T01:30:42;4.30;;;1.00;;
67665;SDS011;54448;51.472;-2.574;2023-10-19T01:33:09;13.25;;;1.50;;
67665;SDS011;54448;51.472;-2.574;2023-10-19T01:35:40;7.85;;;1.02;;
67665;SDS011;54448;51.472;-2.574;2023-10-19T01:38:25;10.68;;;1.52;;
67665;SDS011;54448;51.472;-2.574;2023-10-19T01:40:55;9.77;;;1.10;;
67665;SDS011;54448;51.472;-2.574;2023-10-19T01:43:24;6.20;;;1.40;;
67665;SDS011;54448;51.472;-2.574;2023-10-19T01:45:53;8.15;;;1.40;;
67665;SDS011;54448;51.472;-2.574;2023-10-19T01:48:21;6.85;;;1.10;;
67665;SDS011;54448;51.472;-2.574;2023-10-19T01:51:02;10.30;;;1.40;;
67665;SDS011;54448;51.472;-2.574;2023-10-19T01:53:32;4.00;;;0.95;;
67665;SDS011;54448;51.472;-2.574;2023-10-19T01:55:58;6.10;;;1.45;;
67665;SDS011;54448;51.472;-2.574;2023-10-19T01:58:24;11.15;;;1.30;;
67665;SDS011;54448;51.472;-2.574;2023-10-19T02:00:53;7.60;;;1.63;;
67665;SDS011;54448;51.472;-2.574;2023-10-19T02:03:25;4.18;;;0.90;;
67665;SDS011;54448;51.472;-2.574;2023-10-19T02:06:00;10.15;;;1.02;;
67665;SDS011;54448;51.472;-2.574;2023-10-19T02:08:34;8.98;;;1.10;;
67665;SDS011;54448;51.472;-2.574;2023-10-19T02:11:03;4.25;;;0.80;;
67665;SDS011;54448;51.472;-2.574;2023-10-19T02:13:35;7.80;;;0.90;;
67665;SDS011;54448;51.472;-2.574;2023-10-19T02:16:01;7.40;;;1.27;;
67665;SDS011;54448;51.472;-2.574;2023-10-19T02:18:26;11.00;;;0.95;;
67665;SDS011;54448;51.472;-2.574;2023-10-19T02:20:52;6.85;;;1.40;;
67665;SDS011;54448;51.472;-2.574;2023-10-19T02:23:17;4.50;;;1.10;;
67665;SDS011;54448;51.472;-2.574;2023-10-19T02:25:43;9.48;;;1.05;;
67665;SDS011;54448;51.472;-2.574;2023-10-19T02:28:08;6.20;;;1.10;;
67665;SDS011;54448;51.472;-2.574;2023-10-19T02:30:34;9.60;;;1.50;;
67665;SDS011;54448;51.472;-2.574;2023-10-19T02:33:00;6.80;;;1.27;;
67665;SDS011;54448;51.472;-2.574;2023-10-19T02:35:26;8.90;;;1.40;;
67665;SDS011;54448;51.472;-2.574;2023-10-19T02:37:55;2.85;;;1.10;;
67665;SDS011;54448;51.472;-2.574;2023-10-19T02:40:21;11.77;;;1.75;;
67665;SDS011;54448;51.472;-2.574;2023-10-19T02:42:49;21.08;;;2.38;;
67665;SDS011;54448;51.472;-2.574;2023-10-19T02:45:19;13.27;;;2.25;;
67665;SDS011;54448;51.472;-2.574;2023-10-19T02:47:45;13.88;;;2.08;;
67665;SDS011;54448;51.472;-2.574;2023-10-19T02:50:11;10.82;;;1.60;;
67665;SDS011;54448;51.472;-2.574;2023-10-19T02:52:41;14.23;;;2.08;;
67665;SDS011;54448;51.472;-2.574;2023-10-19T02:55:10;9.00;;;1.58;;
67665;SDS011;54448;51.472;-2.574;2023-10-19T02:57:36;4.55;;;1.50;;
67665;SDS011;54448;51.472;-2.574;2023-10-19T03:00:04;17.08;;;2.70;;
67665;SDS011;54448;51.472;-2.574;2023-10-19T03:02:36;10.73;;;1.70;;
67665;SDS011;54448;51.472;-2.574;2023-10-19T03:05:03;15.98;;;1.83;;
67665;SDS011;54448;51.472;-2.574;2023-10-19T03:07:37;16.27;;;1.58;;
67665;SDS011;54448;51.472;-2.574;2023-10-19T03:10:04;14.60;;;1.65;;
67665;SDS011;54448;51.472;-2.574;2023-10-19T03:12:31;25.85;;;2.80;;
67665;SDS011;54448;51.472;-2.574;2023-10-19T03:14:57;19.73;;;2.42;;
67665;SDS011;54448;51.472;-2.574;2023-10-19T03:17:25;23.15;;;2.50;;
67665;SDS011;54448;51.472;-2.574;2023-10-19T03:19:51;28.85;;;2.40;;
67665;SDS011;54448;51.472;-2.574;2023-10-19T03:22:17;24.10;;;2.22;;
67665;SDS011;54448;51.472;-2.574;2023-10-19T03:24:44;24.08;;;2.70;;
67665;SDS011;54448;51.472;-2.574;2023-10-19T03:27:11;23.25;;;2.50;;
67665;SDS011;54448;51.472;-2.574;2023-10-19T03:29:41;31.75;;;3.40;;
67665;SDS011;54448;51.472;-2.574;2023-10-19T03:32:11;24.90;;;2.60;;
67665;SDS011;54448;51.472;-2.574;2023-10-19T03:34:37;26.48;;;2.90;;
67665;SDS011;54448;51.472;-2.574;2023-10-19T03:37:03;31.85;;;3.80;;
67665;SDS011;54448;51.472;-2.574;2023-10-19T03:39:34;36.72;;;4.35;;
67665;SDS011;54448;51.472;-2.574;2023-10-19T03:41:59;26.30;;;3.90;;
67665;SDS011;54448;51.472;-2.574;2023-10-19T03:44:24;22.35;;;2.97;;
67665;SDS011;54448;51.472;-2.574;2023-10-19T03:46:53;25.08;;;2.90;;
67665;SDS011;54448;51.472;-2.574;2023-10-19T03:49:22;29.45;;;4.32;;
67665;SDS011;54448;51.472;-2.574;2023-10-19T03:51:48;27.05;;;3.35;;
67665;SDS011;54448;51.472;-2.574;2023-10-19T03:54:26;26.45;;;3.50;;
67665;SDS011;54448;51.472;-2.574;2023-10-19T03:56:52;32.90;;;3.40;;
67665;SDS011;54448;51.472;-2.574;2023-10-19T03:59:19;28.10;;;2.92;;
67665;SDS011;54448;51.472;-2.574;2023-10-19T04:01:48;26.55;;;3.45;;
67665;SDS011;54448;51.472;-2.574;2023-10-19T04:04:14;19.10;;;2.90;;
67665;SDS011;54448;51.472;-2.574;2023-10-19T04:06:41;24.15;;;2.53;;
67665;SDS011;54448;51.472;-2.574;2023-10-19T04:09:12;20.67;;;2.50;;
67665;SDS011;54448;51.472;-2.574;2023-10-19T04:11:41;28.83;;;3.40;;
67665;SDS011;54448;51.472;-2.574;2023-10-19T04:14:16;30.08;;;3.60;;
67665;SDS011;54448;51.472;-2.574;2023-10-19T04:16:43;21.15;;;2.90;;
67665;SDS011;54448;51.472;-2.574;2023-10-19T04:19:09;23.45;;;2.70;;
67665;SDS011;54448;51.472;-2.574;2023-10-19T04:21:35;14.18;;;2.08;;
67665;SDS011;54448;51.472;-2.574;2023-10-19T04:24:05;19.92;;;2.35;;
67665;SDS011;54448;51.472;-2.574;2023-10-19T04:26:32;20.40;;;2.47;;
67665;SDS011;54448;51.472;-2.574;2023-10-19T04:29:02;12.63;;;1.73;;
67665;SDS011;54448;51.472;-2.574;2023-10-19T04:31:41;11.13;;;1.88;;
67665;SDS011;54448;51.472;-2.574;2023-10-19T04:34:20;15.00;;;1.92;;
67665;SDS011;54448;51.472;-2.574;2023-10-19T04:36:47;7.80;;;1.00;;
67665;SDS011;54448;51.472;-2.574;2023-10-19T04:39:15;8.27;;;1.15;;
67665;SDS011;54448;51.472;-2.574;2023-10-19T04:41:44;4.22;;;0.90;;
67665;SDS011;54448;51.472;-2.574;2023-10-19T04:44:10;4.68;;;0.98;;
67665;SDS011;54448;51.472;-2.574;2023-10-19T04:46:36;8.93;;;1.00;;
67665;SDS011;54448;51.472;-2.574;2023-10-19T04:49:02;7.80;;;0.90;;
67665;SDS011;54448;51.472;-2.574;2023-10-19T04:51:28;7.75;;;1.10;;
67665;SDS011;54448;51.472;-2.574;2023-10-19T04:53:54;11.40;;;1.20;;
67665;SDS011;54448;51.472;-2.574;2023-10-19T04:56:20;11.00;;;1.10;;
67665;SDS011;54448;51.472;-2.574;2023-10-19T04:58:46;11.30;;;1.10;;
67665;SDS011;54448;51.472;-2.574;2023-10-19T05:01:12;3.45;;;0.77;;
67665;SDS011;54448;51.472;-2.574;2023-10-19T05:03:37;8.93;;;1.60;;
67665;SDS011;54448;51.472;-2.574;2023-10-19T05:06:03;6.82;;;1.00;;
67665;SDS011;54448;51.472;-2.574;2023-10-19T05:08:29;10.15;;;1.20;;
67665;SDS011;54448;51.472;-2.574;2023-10-19T05:10:55;7.75;;;1.27;;
67665;SDS011;54448;51.472;-2.574;2023-10-19T05:13:24;10.05;;;1.23;;
67665;SDS011;54448;51.472;-2.574;2023-10-19T05:15:51;12.50;;;1.80;;
67665;SDS011;54448;51.472;-2.574;2023-10-19T05:18:18;11.55;;;1.10;;
67665;SDS011;54448;51.472;-2.574;2023-10-19T05:20:44;14.55;;;1.38;;
67665;SDS011;54448;51.472;-2.574;2023-10-19T05:23:11;13.07;;;1.50;;
67665;SDS011;54448;51.472;-2.574;2023-10-19T05:25:38;14.90;;;1.52;;
67665;SDS011;54448;51.472;-2.574;2023-10-19T05:28:04;10.43;;;1.63;;
67665;SDS011;54448;51.472;-2.574;2023-10-19T05:30:30;14.32;;;1.45;;
67665;SDS011;54448;51.472;-2.574;2023-10-19T05:32:57;13.02;;;2.05;;
67665;SDS011;54448;51.472;-2.574;2023-10-19T05:35:23;18.10;;;1.98;;
67665;SDS011;54448;51.472;-2.574;2023-10-19T05:37:54;17.58;;;1.90;;
67665;SDS011;54448;51.472;-2.574;2023-10-19T05:40:25;20.80;;;2.40;;
67665;SDS011;54448;51.472;-2.574;2023-10-19T05:43:01;17.30;;;2.60;;
67665;SDS011;54448;51.472;-2.574;2023-10-19T05:45:28;16.33;;;2.78;;
67665;SDS011;54448;51.472;-2.574;2023-10-19T05:47:55;25.52;;;2.45;;
67665;SDS011;54448;51.472;-2.574;2023-10-19T05:50:22;27.70;;;3.42;;
67665;SDS011;54448;51.472;-2.574;2023-10-19T05:52:48;28.80;;;2.55;;
67665;SDS011;54448;51.472;-2.574;2023-10-19T05:55:14;30.58;;;3.33;;
67665;SDS011;54448;51.472;-2.574;2023-10-19T05:57:40;31.42;;;2.72;;
67665;SDS011;54448;51.472;-2.574;2023-10-19T06:00:09;29.77;;;3.88;;
67665;SDS011;54448;51.472;-2.574;2023-10-19T06:02:39;28.27;;;2.88;;
67665;SDS011;54448;51.472;-2.574;2023-10-19T06:05:07;30.65;;;3.45;;
67665;SDS011;54448;51.472;-2.574;2023-10-19T06:07:32;25.70;;;4.10;;
67665;SDS011;54448;51.472;-2.574;2023-10-19T06:09:58;31.02;;;3.42;;
67665;SDS011;54448;51.472;-2.574;2023-10-19T06:12:26;24.50;;;2.80;;
67665;SDS011;54448;51.472;-2.574;2023-10-19T06:14:51;32.72;;;3.60;;
67665;SDS011;54448;51.472;-2.574;2023-10-19T06:17:16;28.85;;;3.53;;
67665;SDS011;54448;51.472;-2.574;2023-10-19T06:19:44;31.95;;;3.63;;
67665;SDS011;54448;51.472;-2.574;2023-10-19T06:22:11;33.90;;;3.50;;
67665;SDS011;54448;51.472;-2.574;2023-10-19T06:24:37;31.88;;;3.50;;
67665;SDS011;54448;51.472;-2.574;2023-10-19T06:27:02;34.58;;;3.28;;
67665;SDS011;54448;51.472;-2.574;2023-10-19T06:29:29;35.25;;;3.63;;
67665;SDS011;54448;51.472;-2.574;2023-10-19T06:31:54;33.03;;;4.35;;
67665;SDS011;54448;51.472;-2.574;2023-10-19T06:34:20;32.75;;;3.28;;
67665;SDS011;54448;51.472;-2.574;2023-10-19T06:36:46;31.63;;;4.00;;
67665;SDS011;54448;51.472;-2.574;2023-10-19T06:39:11;31.63;;;3.50;;
67665;SDS011;54448;51.472;-2.574;2023-10-19T06:41:38;38.50;;;4.13;;
67665;SDS011;54448;51.472;-2.574;2023-10-19T06:44:04;26.10;;;2.95;;
67665;SDS011;54448;51.472;-2.574;2023-10-19T06:46:30;32.97;;;4.88;;
67665;SDS011;54448;51.472;-2.574;2023-10-19T06:48:56;36.72;;;3.90;;
67665;SDS011;54448;51.472;-2.574;2023-10-19T06:51:25;30.67;;;3.70;;
67665;SDS011;54448;51.472;-2.574;2023-10-19T06:53:52;35.92;;;4.63;;
67665;SDS011;54448;51.472;-2.574;2023-10-19T06:56:17;43.80;;;5.05;;
67665;SDS011;54448;51.472;-2.574;2023-10-19T06:58:43;31.48;;;3.78;;
67665;SDS011;54448;51.472;-2.574;2023-10-19T07:01:09;34.00;;;3.67;;
67665;SDS011;54448;51.472;-2.574;2023-10-19T07:03:35;30.35;;;4.75;;
67665;SDS011;54448;51.472;-2.574;2023-10-19T07:06:01;30.90;;;3.55;;
67665;SDS011;54448;51.472;-2.574;2023-10-19T07:08:27;34.05;;;4.88;;
67665;SDS011;54448;51.472;-2.574;2023-10-19T07:10:53;42.75;;;4.28;;
67665;SDS011;54448;51.472;-2.574;2023-10-19T07:13:19;25.58;;;3.72;;
67665;SDS011;54448;51.472;-2.574;2023-10-19T07:15:48;32.03;;;3.22;;
67665;SDS011;54448;51.472;-2.574;2023-10-19T07:18:17;42.65;;;3.65;;
67665;SDS011;54448;51.472;-2.574;2023-10-19T07:20:42;29.08;;;4.47;;
67665;SDS011;54448;51.472;-2.574;2023-10-19T07:23:08;29.40;;;3.92;;
67665;SDS011;54448;51.472;-2.574;2023-10-19T07:25:52;35.80;;;3.42;;
67665;SDS011;54448;51.472;-2.574;2023-10-19T07:28:19;41.08;;;4.95;;
67665;SDS011;54448;51.472;-2.574;2023-10-19T07:30:44;32.35;;;4.50;;
67665;SDS011;54448;51.472;-2.574;2023-10-19T07:33:11;32.63;;;3.60;;
67665;SDS011;54448;51.472;-2.574;2023-10-19T07:35:45;39.55;;;5.00;;
67665;SDS011;54448;51.472;-2.574;2023-10-19T07:38:15;37.55;;;3.60;;
67665;SDS011;54448;51.472;-2.574;2023-10-19T07:40:42;30.85;;;4.35;;
67665;SDS011;54448;51.472;-2.574;2023-10-19T07:43:08;36.88;;;5.07;;
67665;SDS011;54448;51.472;-2.574;2023-10-19T07:45:35;35.60;;;3.90;;
67665;SDS011;54448;51.472;-2.574;2023-10-19T07:48:01;32.22;;;4.05;;
67665;SDS011;54448;51.472;-2.574;2023-10-19T07:50:34;38.33;;;4.57;;
67665;SDS011;54448;51.472;-2.574;2023-10-19T07:53:00;33.15;;;4.07;;
67665;SDS011;54448;51.472;-2.574;2023-10-19T07:55:26;26.35;;;3.58;;
67665;SDS011;54448;51.472;-2.574;2023-10-19T07:57:52;36.25;;;3.55;;
67665;SDS011;54448;51.472;-2.574;2023-10-19T08:00:19;26.52;;;4.13;;
67665;SDS011;54448;51.472;-2.574;2023-10-19T08:02:45;35.35;;;3.97;;
67665;SDS011;54448;51.472;-2.574;2023-10-19T08:05:11;38.97;;;4.25;;
67665;SDS011;54448;51.472;-2.574;2023-10-19T08:07:37;36.67;;;3.90;;
67665;SDS011;54448;51.472;-2.574;2023-10-19T08:10:08;40.70;;;4.65;;
67665;SDS011;54448;51.472;-2.574;2023-10-19T08:12:35;39.40;;;4.88;;
67665;SDS011;54448;51.472;-2.574;2023-10-19T08:15:01;36.03;;;4.30;;
67665;SDS011;54448;51.472;-2.574;2023-10-19T08:17:27;44.85;;;4.38;;
67665;SDS011;54448;51.472;-2.574;2023-10-19T08:19:52;31.75;;;4.18;;
67665;SDS011;54448;51.472;-2.574;2023-10-19T08:22:18;33.50;;;3.55;;
67665;SDS011;54448;51.472;-2.574;2023-10-19T08:24:44;32.05;;;4.15;;
67665;SDS011;54448;51.472;-2.574;2023-10-19T08:27:11;29.63;;;4.22;;
67665;SDS011;54448;51.472;-2.574;2023-10-19T08:29:38;51.25;;;5.15;;
67665;SDS011;54448;51.472;-2.574;2023-10-19T08:32:03;34.47;;;4.10;;
67665;SDS011;54448;51.472;-2.574;2023-10-19T08:34:29;33.45;;;3.78;;
67665;SDS011;54448;51.472;-2.574;2023-10-19T08:37:00;29.88;;;3.20;;
67665;SDS011;54448;51.472;-2.574;2023-10-19T08:39:25;40.28;;;4.82;;
67665;SDS011;54448;51.472;-2.574;2023-10-19T08:41:53;34.50;;;4.28;;
67665;SDS011;54448;51.472;-2.574;2023-10-19T08:44:20;26.30;;;3.25;;
67665;SDS011;54448;51.472;-2.574;2023-10-19T08:46:46;34.10;;;4.03;;
67665;SDS011;54448;51.472;-2.574;2023-10-19T08:49:14;28.98;;;3.42;;
67665;SDS011;54448;51.472;-2.574;2023-10-19T08:51:44;25.73;;;3.08;;
67665;SDS011;54448;51.472;-2.574;2023-10-19T08:54:10;18.58;;;2.55;;
67665;SDS011;54448;51.472;-2.574;2023-10-19T08:56:37;17.05;;;2.70;;
67665;SDS011;54448;51.472;-2.574;2023-10-19T08:59:04;33.70;;;3.28;;
67665;SDS011;54448;51.472;-2.574;2023-10-19T09:01:31;22.27;;;2.78;;
67665;SDS011;54448;51.472;-2.574;2023-10-19T09:03:57;22.33;;;2.95;;
67665;SDS011;54448;51.472;-2.574;2023-10-19T09:06:23;26.08;;;3.00;;
67665;SDS011;54448;51.472;-2.574;2023-10-19T09:08:48;26.73;;;3.58;;
67665;SDS011;54448;51.472;-2.574;2023-10-19T09:11:14;23.80;;;3.85;;
67665;SDS011;54448;51.472;-2.574;2023-10-19T09:13:44;19.75;;;2.78;;
67665;SDS011;54448;51.472;-2.574;2023-10-19T09:16:13;33.15;;;4.07;;
67665;SDS011;54448;51.472;-2.574;2023-10-19T09:18:41;25.63;;;3.13;;
67665;SDS011;54448;51.472;-2.574;2023-10-19T09:21:07;31.00;;;4.05;;
67665;SDS011;54448;51.472;-2.574;2023-10-19T09:23:36;30.75;;;2.90;;
67665;SDS011;54448;51.472;-2.574;2023-10-19T09:26:02;18.23;;;3.35;;
67665;SDS011;54448;51.472;-2.574;2023-10-19T09:28:34;34.22;;;4.72;;
67665;SDS011;54448;51.472;-2.574;2023-10-19T09:31:01;29.80;;;3.45;;
67665;SDS011;54448;51.472;-2.574;2023-10-19T09:33:27;31.52;;;3.90;;
67665;SDS011;54448;51.472;-2.574;2023-10-19T09:35:52;25.80;;;3.85;;
67665;SDS011;54448;51.472;-2.574;2023-10-19T09:38:21;33.90;;;4.28;;
67665;SDS011;54448;51.472;-2.574;2023-10-19T09:40:50;34.35;;;4.32;;
67665;SDS011;54448;51.472;-2.574;2023-10-19T09:43:16;31.45;;;3.97;;
67665;SDS011;54448;51.472;-2.574;2023-10-19T09:45:49;42.65;;;4.82;;
67665;SDS011;54448;51.472;-2.574;2023-10-19T09:48:18;35.42;;;3.75;;
67665;SDS011;54448;51.472;-2.574;2023-10-19T09:50:45;30.00;;;4.07;;
67665;SDS011;54448;51.472;-2.574;2023-10-19T09:53:19;23.85;;;4.47;;
67665;SDS011;54448;51.472;-2.574;2023-10-19T09:55:56;27.67;;;3.08;;
67665;SDS011;54448;51.472;-2.574;2023-10-19T09:59:11;28.80;;;2.95;;
67665;SDS011;54448;51.472;-2.574;2023-10-19T10:01:18;27.92;;;3.28;;
67665;SDS011;54448;51.472;-2.574;2023-10-19T10:03:50;29.75;;;4.45;;
67665;SDS011;54448;51.472;-2.574;2023-10-19T10:06:29;31.73;;;3.70;;
67665;SDS011;54448;51.472;-2.574;2023-10-19T10:08:56;28.77;;;3.22;;
67665;SDS011;54448;51.472;-2.574;2023-10-19T10:11:24;33.60;;;3.45;;
67665;SDS011;54448;51.472;-2.574;2023-10-19T10:13:57;34.72;;;3.47;;
67665;SDS011;54448;51.472;-2.574;2023-10-19T10:16:24;21.65;;;3.95;;
67665;SDS011;54448;51.472;-2.574;2023-10-19T10:18:51;32.63;;;4.30;;
67665;SDS011;54448;51.472;-2.574;2023-10-19T10:21:20;31.63;;;3.55;;
67665;SDS011;54448;51.472;-2.574;2023-10-19T10:26:19;23.40;;;3.00;;
67665;SDS011;54448;51.472;-2.574;2023-10-19T10:31:45;29.20;;;3.72;;
67665;SDS011;54448;51.472;-2.574;2023-10-19T10:34:41;24.73;;;3.85;;
67665;SDS011;54448;51.472;-2.574;2023-10-19T10:37:03;25.67;;;2.85;;
67665;SDS011;54448;51.472;-2.574;2023-10-19T10:39:33;26.58;;;2.50;;
67665;SDS011;54448;51.472;-2.574;2023-10-19T10:42:02;27.77;;;3.17;;
67665;SDS011;54448;51.472;-2.574;2023-10-19T10:47:10;21.58;;;3.55;;
67665;SDS011;54448;51.472;-2.574;2023-10-19T10:52:35;22.70;;;2.80;;
67665;SDS011;54448;51.472;-2.574;2023-10-19T10:55:12;30.48;;;5.20;;
67665;SDS011;54448;51.472;-2.574;2023-10-19T10:57:39;30.58;;;3.35;;
67665;SDS011;54448;51.472;-2.574;2023-10-19T11:00:09;25.00;;;2.70;;
67665;SDS011;54448;51.472;-2.574;2023-10-19T11:02:42;22.45;;;3.85;;
67665;SDS011;54448;51.472;-2.574;2023-10-19T11:05:11;30.90;;;3.70;;
67665;SDS011;54448;51.472;-2.574;2023-10-19T11:07:37;29.65;;;3.80;;
67665;SDS011;54448;51.472;-2.574;2023-10-19T11:10:04;30.92;;;3.65;;
67665;SDS011;54448;51.472;-2.574;2023-10-19T11:12:29;27.30;;;3.67;;
67665;SDS011;54448;51.472;-2.574;2023-10-19T11:14:56;23.83;;;3.25;;
67665;SDS011;54448;51.472;-2.574;2023-10-19T11:17:25;28.63;;;3.33;;
67665;SDS011;54448;51.472;-2.574;2023-10-19T11:19:55;22.00;;;3.05;;
67665;SDS011;54448;51.472;-2.574;2023-10-19T11:22:22;22.65;;;3.15;;
67665;SDS011;54448;51.472;-2.574;2023-10-19T11:24:50;23.52;;;4.38;;
67665;SDS011;54448;51.472;-2.574;2023-10-19T11:27:26;27.30;;;3.35;;
67665;SDS011;54448;51.472;-2.574;2023-10-19T11:29:56;23.77;;;4.28;;
67665;SDS011;54448;51.472;-2.574;2023-10-19T11:32:35;25.85;;;2.78;;
67665;SDS011;54448;51.472;-2.574;2023-10-19T11:35:03;27.17;;;3.88;;
67665;SDS011;54448;51.472;-2.574;2023-10-19T11:37:28;26.00;;;3.17;;
67665;SDS011;54448;51.472;-2.574;2023-10-19T11:39:54;23.95;;;2.85;;
67665;SDS011;54448;51.472;-2.574;2023-10-19T11:42:19;19.02;;;2.80;;
67665;SDS011;54448;51.472;-2.574;2023-10-19T11:44:47;21.65;;;2.72;;
67665;SDS011;54448;51.472;-2.574;2023-10-19T11:47:13;32.08;;;4.85;;
67665;SDS011;54448;51.472;-2.574;2023-10-19T11:49:39;26.17;;;3.25;;
67665;SDS011;54448;51.472;-2.574;2023-10-19T11:52:07;17.83;;;3.17;;
67665;SDS011;54448;51.472;-2.574;2023-10-19T11:54:33;19.88;;;3.80;;
67665;SDS011;54448;51.472;-2.574;2023-10-19T11:56:59;25.92;;;3.58;;
67665;SDS011;54448;51.472;-2.574;2023-10-19T11:59:25;24.63;;;3.35;;
67665;SDS011;54448;51.472;-2.574;2023-10-19T12:01:51;24.33;;;3.80;;
67665;SDS011;54448;51.472;-2.574;2023-10-19T12:04:17;18.15;;;3.00;;
67665;SDS011;54448;51.472;-2.574;2023-10-19T12:06:43;24.27;;;3.55;;
67665;SDS011;54448;51.472;-2.574;2023-10-19T12:09:11;19.40;;;3.33;;
67665;SDS011;54448;51.472;-2.574;2023-10-19T12:11:40;19.95;;;2.78;;
67665;SDS011;54448;51.472;-2.574;2023-10-19T12:14:06;28.23;;;3.15;;
67665;SDS011;54448;51.472;-2.574;2023-10-19T12:16:36;21.25;;;2.78;;
67665;SDS011;54448;51.472;-2.574;2023-10-19T12:19:04;18.02;;;2.92;;
67665;SDS011;54448;51.472;-2.574;2023-10-19T12:21:30;24.73;;;3.08;;
67665;SDS011;54448;51.472;-2.574;2023-10-19T12:23:56;17.58;;;3.00;;
67665;SDS011;54448;51.472;-2.574;2023-10-19T12:26:22;16.80;;;2.25;;
67665;SDS011;54448;51.472;-2.574;2023-10-19T12:28:48;16.83;;;2.60;;
67665;SDS011;54448;51.472;-2.574;2023-10-19T12:31:14;26.58;;;3.25;;
67665;SDS011;54448;51.472;-2.574;2023-10-19T12:33:43;18.02;;;2.17;;
67665;SDS011;54448;51.472;-2.574;2023-10-19T12:36:10;22.98;;;3.33;;
67665;SDS011;54448;51.472;-2.574;2023-10-19T12:38:53;19.77;;;3.05;;
67665;SDS011;54448;51.472;-2.574;2023-10-19T12:41:22;18.98;;;3.20;;
67665;SDS011;54448;51.472;-2.574;2023-10-19T12:43:48;15.00;;;2.28;;
67665;SDS011;54448;51.472;-2.574;2023-10-19T12:46:23;20.13;;;3.10;;
67665;SDS011;54448;51.472;-2.574;2023-10-19T12:49:01;25.15;;;2.95;;
67665;SDS011;54448;51.472;-2.574;2023-10-19T12:51:29;24.38;;;3.40;;
67665;SDS011;54448;51.472;-2.574;2023-10-19T12:53:55;16.65;;;2.58;;
67665;SDS011;54448;51.472;-2.574;2023-10-19T12:56:21;15.25;;;2.40;;
67665;SDS011;54448;51.472;-2.574;2023-10-19T12:58:49;13.82;;;3.00;;
67665;SDS011;54448;51.472;-2.574;2023-10-19T13:01:15;20.65;;;2.72;;
67665;SDS011;54448;51.472;-2.574;2023-10-19T13:03:45;14.80;;;2.42;;
67665;SDS011;54448;51.472;-2.574;2023-10-19T13:06:13;16.23;;;2.35;;
67665;SDS011;54448;51.472;-2.574;2023-10-19T13:08:39;17.17;;;2.50;;
67665;SDS011;54448;51.472;-2.574;2023-10-19T13:11:06;13.07;;;1.83;;
67665;SDS011;54448;51.472;-2.574;2023-10-19T13:13:35;15.52;;;2.08;;
67665;SDS011;54448;51.472;-2.574;2023-10-19T13:16:04;22.27;;;3.00;;
67665;SDS011;54448;51.472;-2.574;2023-10-19T13:18:34;24.50;;;3.38;;
67665;SDS011;54448;51.472;-2.574;2023-10-19T13:21:00;21.80;;;3.45;;
67665;SDS011;54448;51.472;-2.574;2023-10-19T13:23:30;18.63;;;3.20;;
67665;SDS011;54448;51.472;-2.574;2023-10-19T13:25:58;21.05;;;2.78;;
67665;SDS011;54448;51.472;-2.574;2023-10-19T13:28:44;14.68;;;2.28;;
67665;SDS011;54448;51.472;-2.574;2023-10-19T13:31:10;17.63;;;2.85;;
67665;SDS011;54448;51.472;-2.574;2023-10-19T13:33:36;17.90;;;2.63;;
67665;SDS011;54448;51.472;-2.574;2023-10-19T13:36:02;25.13;;;3.38;;
67665;SDS011;54448;51.472;-2.574;2023-10-19T13:38:27;21.95;;;3.13;;
67665;SDS011;54448;51.472;-2.574;2023-10-19T13:40:54;17.50;;;2.67;;
67665;SDS011;54448;51.472;-2.574;2023-10-19T13:43:20;17.05;;;2.47;;
67665;SDS011;54448;51.472;-2.574;2023-10-19T13:45:47;22.67;;;2.90;;
67665;SDS011;54448;51.472;-2.574;2023-10-19T13:48:17;22.70;;;2.78;;
67665;SDS011;54448;51.472;-2.574;2023-10-19T13:50:46;17.33;;;2.63;;
67665;SDS011;54448;51.472;-2.574;2023-10-19T13:53:14;20.05;;;2.63;;
67665;SDS011;54448;51.472;-2.574;2023-10-19T13:55:41;20.52;;;2.80;;
67665;SDS011;54448;51.472;-2.574;2023-10-19T13:58:06;19.23;;;2.88;;
67665;SDS011;54448;51.472;-2.574;2023-10-19T14:00:33;14.93;;;2.67;;
67665;SDS011;54448;51.472;-2.574;2023-10-19T14:02:59;21.83;;;2.80;;
67665;SDS011;54448;51.472;-2.574;2023-10-19T14:05:26;18.90;;;2.67;;
67665;SDS011;54448;51.472;-2.574;2023-10-19T14:07:52;20.48;;;2.45;;
67665;SDS011;54448;51.472;-2.574;2023-10-19T14:10:18;15.30;;;2.33;;
67665;SDS011;54448;51.472;-2.574;2023-10-19T14:12:47;17.92;;;2.60;;
67665;SDS011;54448;51.472;-2.574;2023-10-19T14:15:17;17.27;;;2.75;;
67665;SDS011;54448;51.472;-2.574;2023-10-19T14:17:44;16.55;;;3.20;;
67665;SDS011;54448;51.472;-2.574;2023-10-19T14:20:11;15.25;;;2.45;;
67665;SDS011;54448;51.472;-2.574;2023-10-19T14:25:09;17.20;;;2.35;;
67665;SDS011;54448;51.472;-2.574;2023-10-19T14:27:45;21.15;;;4.65;;
67665;SDS011;54448;51.472;-2.574;2023-10-19T14:30:12;20.20;;;2.35;;
67665;SDS011;54448;51.472;-2.574;2023-10-19T14:32:39;16.90;;;3.08;;
67665;SDS011;54448;51.472;-2.574;2023-10-19T14:35:05;18.92;;;3.00;;
67665;SDS011;54448;51.472;-2.574;2023-10-19T14:37:34;15.75;;;2.53;;
67665;SDS011;54448;51.472;-2.574;2023-10-19T14:40:00;23.98;;;2.53;;
67665;SDS011;54448;51.472;-2.574;2023-10-19T14:42:25;22.77;;;2.65;;
67665;SDS011;54448;51.472;-2.574;2023-10-19T14:44:51;22.58;;;3.10;;
67665;SDS011;54448;51.472;-2.574;2023-10-19T14:47:16;21.95;;;2.78;;